sensor_id;sensor_type;location;lat;lon;timestamp;P1;durP1;ratioP1;P2;durP2;ratioP2
66587;SDS011;53446;50.076;8.198;2023-05-16T00:00:13;88.28;;;75.10;;
66587;SDS011;53446;50.076;8.198;2023-05-16T00:02:14;92.97;;;77.70;;
66587;SDS011;53446;50.076;8.198;2023-05-16T00:04:15;88.80;;;74.78;;
66587;SDS011;53446;50.076;8.198;2023-05-16T00:06:16;100.10;;;75.90;;
66587;SDS011;53446;50.076;8.198;2023-05-16T00:08:16;93.95;;;75.18;;
66587;SDS011;53446;50.076;8.198;2023-05-16T00:10:17;97.87;;;78.30;;
66587;SDS011;53446;50.076;8.198;2023-05-16T00:12:17;98.00;;;77.17;;
66587;SDS011;53446;50.076;8.198;2023-05-16T00:14:18;93.30;;;78.43;;
66587;SDS011;53446;50.076;8.198;2023-05-16T00:16:19;97.40;;;77.20;;
66587;SDS011;53446;50.076;8.198;2023-05-16T00:18:20;97.47;;;77.50;;
66587;SDS011;53446;50.076;8.198;2023-05-16T00:20:21;103.40;;;78.40;;
66587;SDS011;53446;50.076;8.198;2023-05-16T00:22:23;101.25;;;78.18;;
66587;SDS011;53446;50.076;8.198;2023-05-16T00:24:24;96.95;;;79.85;;
66587;SDS011;53446;50.076;8.198;2023-05-16T00:26:24;92.53;;;73.27;;
66587;SDS011;53446;50.076;8.198;2023-05-16T00:28:25;97.80;;;77.57;;
66587;SDS011;53446;50.076;8.198;2023-05-16T00:30:25;96.53;;;76.53;;
66587;SDS011;53446;50.076;8.198;2023-05-16T00:32:25;95.43;;;75.53;;
66587;SDS011;53446;50.076;8.198;2023-05-16T00:34:26;95.45;;;76.63;;
66587;SDS011;53446;50.076;8.198;2023-05-16T00:36:26;94.83;;;75.47;;
66587;SDS011;53446;50.076;8.198;2023-05-16T00:38:27;83.53;;;70.10;;
66587;SDS011;53446;50.076;8.198;2023-05-16T00:40:28;91.05;;;72.93;;
66587;SDS011;53446;50.076;8.198;2023-05-16T00:42:28;82.23;;;69.67;;
66587;SDS011;53446;50.076;8.198;2023-05-16T00:44:29;79.63;;;70.17;;
66587;SDS011;53446;50.076;8.198;2023-05-16T00:46:29;81.32;;;71.93;;
66587;SDS011;53446;50.076;8.198;2023-05-16T00:48:30;82.63;;;69.73;;
66587;SDS011;53446;50.076;8.198;2023-05-16T00:50:32;79.30;;;67.95;;
66587;SDS011;53446;50.076;8.198;2023-05-16T00:52:32;80.10;;;71.47;;
66587;SDS011;53446;50.076;8.198;2023-05-16T00:54:32;74.53;;;65.57;;
66587;SDS011;53446;50.076;8.198;2023-05-16T00:56:33;78.80;;;68.73;;
66587;SDS011;53446;50.076;8.198;2023-05-16T00:58:33;76.57;;;66.30;;
66587;SDS011;53446;50.076;8.198;2023-05-16T01:00:35;77.35;;;68.78;;
66587;SDS011;53446;50.076;8.198;2023-05-16T01:02:36;78.50;;;69.25;;
66587;SDS011;53446;50.076;8.198;2023-05-16T01:04:37;77.07;;;69.00;;
66587;SDS011;53446;50.076;8.198;2023-05-16T01:06:37;79.13;;;70.50;;
66587;SDS011;53446;50.076;8.198;2023-05-16T01:08:37;80.75;;;71.40;;
66587;SDS011;53446;50.076;8.198;2023-05-16T01:10:39;79.88;;;71.13;;
66587;SDS011;53446;50.076;8.198;2023-05-16T01:15:28;83.63;;;72.53;;
66587;SDS011;53446;50.076;8.198;2023-05-16T01:22:01;97.35;;;81.28;;
66587;SDS011;53446;50.076;8.198;2023-05-16T01:24:49;97.97;;;78.83;;
66587;SDS011;53446;50.076;8.198;2023-05-16T01:26:47;102.32;;;79.15;;
66587;SDS011;53446;50.076;8.198;2023-05-16T01:28:50;97.15;;;77.32;;
66587;SDS011;53446;50.076;8.198;2023-05-16T01:30:50;95.88;;;75.72;;
66587;SDS011;53446;50.076;8.198;2023-05-16T01:32:51;99.03;;;77.77;;
66587;SDS011;53446;50.076;8.198;2023-05-16T01:34:51;87.77;;;74.60;;
66587;SDS011;53446;50.076;8.198;2023-05-16T01:39:11;90.60;;;76.22;;
66587;SDS011;53446;50.076;8.198;2023-05-16T01:43:16;89.55;;;73.30;;
66587;SDS011;53446;50.076;8.198;2023-05-16T01:45:22;89.55;;;72.72;;
66587;SDS011;53446;50.076;8.198;2023-05-16T01:47:25;90.22;;;74.95;;
66587;SDS011;53446;50.076;8.198;2023-05-16T01:49:31;84.22;;;72.50;;
66587;SDS011;53446;50.076;8.198;2023-05-16T01:51:35;85.55;;;72.32;;
66587;SDS011;53446;50.076;8.198;2023-05-16T01:53:36;82.50;;;69.30;;
66587;SDS011;53446;50.076;8.198;2023-05-16T01:55:41;80.70;;;69.20;;
66587;SDS011;53446;50.076;8.198;2023-05-16T01:57:43;85.25;;;69.45;;
66587;SDS011;53446;50.076;8.198;2023-05-16T01:59:44;80.38;;;68.45;;
66587;SDS011;53446;50.076;8.198;2023-05-16T02:01:46;78.15;;;67.22;;
66587;SDS011;53446;50.076;8.198;2023-05-16T02:03:46;76.80;;;66.90;;
66587;SDS011;53446;50.076;8.198;2023-05-16T02:05:46;76.97;;;68.50;;
66587;SDS011;53446;50.076;8.198;2023-05-16T02:07:47;87.63;;;69.97;;
66587;SDS011;53446;50.076;8.198;2023-05-16T02:09:47;80.20;;;66.88;;
66587;SDS011;53446;50.076;8.198;2023-05-16T02:11:48;76.47;;;67.97;;
66587;SDS011;53446;50.076;8.198;2023-05-16T02:13:48;77.47;;;67.40;;
66587;SDS011;53446;50.076;8.198;2023-05-16T02:15:48;78.37;;;69.03;;
66587;SDS011;53446;50.076;8.198;2023-05-16T02:17:49;85.53;;;72.03;;
66587;SDS011;53446;50.076;8.198;2023-05-16T02:19:49;80.57;;;70.70;;
66587;SDS011;53446;50.076;8.198;2023-05-16T02:21:49;82.75;;;73.63;;
66587;SDS011;53446;50.076;8.198;2023-05-16T02:23:50;88.83;;;74.67;;
66587;SDS011;53446;50.076;8.198;2023-05-16T02:25:50;81.43;;;72.47;;
66587;SDS011;53446;50.076;8.198;2023-05-16T02:27:51;86.13;;;72.77;;
66587;SDS011;53446;50.076;8.198;2023-05-16T02:29:51;89.57;;;76.30;;
66587;SDS011;53446;50.076;8.198;2023-05-16T02:31:51;86.82;;;75.53;;
66587;SDS011;53446;50.076;8.198;2023-05-16T02:33:51;84.38;;;74.43;;
66587;SDS011;53446;50.076;8.198;2023-05-16T02:35:52;93.43;;;75.17;;
66587;SDS011;53446;50.076;8.198;2023-05-16T02:37:52;92.60;;;76.50;;
66587;SDS011;53446;50.076;8.198;2023-05-16T02:39:53;92.27;;;76.13;;
66587;SDS011;53446;50.076;8.198;2023-05-16T02:41:53;98.80;;;78.53;;
66587;SDS011;53446;50.076;8.198;2023-05-16T02:43:53;95.50;;;78.35;;
66587;SDS011;53446;50.076;8.198;2023-05-16T02:45:54;87.97;;;76.33;;
66587;SDS011;53446;50.076;8.198;2023-05-16T02:47:54;90.10;;;76.43;;
66587;SDS011;53446;50.076;8.198;2023-05-16T02:49:54;98.93;;;78.20;;
66587;SDS011;53446;50.076;8.198;2023-05-16T02:51:55;87.93;;;75.73;;
66587;SDS011;53446;50.076;8.198;2023-05-16T02:53:55;96.73;;;79.17;;
66587;SDS011;53446;50.076;8.198;2023-05-16T02:55:56;98.38;;;76.25;;
66587;SDS011;53446;50.076;8.198;2023-05-16T02:57:56;94.07;;;80.60;;
66587;SDS011;53446;50.076;8.198;2023-05-16T02:59:56;103.53;;;81.93;;
66587;SDS011;53446;50.076;8.198;2023-05-16T03:01:57;99.85;;;81.93;;
66587;SDS011;53446;50.076;8.198;2023-05-16T03:03:57;106.57;;;84.35;;
66587;SDS011;53446;50.076;8.198;2023-05-16T03:05:58;103.47;;;83.60;;
66587;SDS011;53446;50.076;8.198;2023-05-16T03:07:58;102.97;;;83.33;;
66587;SDS011;53446;50.076;8.198;2023-05-16T03:09:59;98.80;;;81.68;;
66587;SDS011;53446;50.076;8.198;2023-05-16T03:11:59;103.30;;;84.47;;
66587;SDS011;53446;50.076;8.198;2023-05-16T03:14:00;100.27;;;83.27;;
66587;SDS011;53446;50.076;8.198;2023-05-16T03:16:01;105.05;;;83.90;;
66587;SDS011;53446;50.076;8.198;2023-05-16T03:18:01;101.53;;;82.97;;
66587;SDS011;53446;50.076;8.198;2023-05-16T03:20:02;106.50;;;84.40;;
66587;SDS011;53446;50.076;8.198;2023-05-16T03:22:04;100.03;;;83.63;;
66587;SDS011;53446;50.076;8.198;2023-05-16T03:24:04;103.33;;;80.40;;
66587;SDS011;53446;50.076;8.198;2023-05-16T03:26:05;97.82;;;77.03;;
66587;SDS011;53446;50.076;8.198;2023-05-16T03:28:05;99.20;;;76.60;;
66587;SDS011;53446;50.076;8.198;2023-05-16T03:30:09;101.78;;;78.78;;
66587;SDS011;53446;50.076;8.198;2023-05-16T03:32:10;99.50;;;76.87;;
66587;SDS011;53446;50.076;8.198;2023-05-16T03:34:10;99.97;;;77.13;;
66587;SDS011;53446;50.076;8.198;2023-05-16T03:36:11;99.40;;;78.43;;
66587;SDS011;53446;50.076;8.198;2023-05-16T03:38:11;93.90;;;75.80;;
66587;SDS011;53446;50.076;8.198;2023-05-16T03:40:11;98.77;;;78.80;;
66587;SDS011;53446;50.076;8.198;2023-05-16T03:42:12;94.80;;;77.70;;
66587;SDS011;53446;50.076;8.198;2023-05-16T03:44:12;92.70;;;75.13;;
66587;SDS011;53446;50.076;8.198;2023-05-16T03:46:12;90.83;;;74.20;;
66587;SDS011;53446;50.076;8.198;2023-05-16T03:48:13;90.33;;;75.27;;
66587;SDS011;53446;50.076;8.198;2023-05-16T03:50:13;94.63;;;78.17;;
66587;SDS011;53446;50.076;8.198;2023-05-16T03:52:14;90.88;;;77.05;;
66587;SDS011;53446;50.076;8.198;2023-05-16T03:54:14;94.63;;;77.97;;
66587;SDS011;53446;50.076;8.198;2023-05-16T03:56:15;93.00;;;76.40;;
66587;SDS011;53446;50.076;8.198;2023-05-16T03:58:15;94.28;;;76.70;;
66587;SDS011;53446;50.076;8.198;2023-05-16T04:00:16;96.87;;;78.30;;
66587;SDS011;53446;50.076;8.198;2023-05-16T04:02:16;96.33;;;79.03;;
66587;SDS011;53446;50.076;8.198;2023-05-16T04:04:17;97.60;;;80.37;;
66587;SDS011;53446;50.076;8.198;2023-05-16T04:06:17;91.47;;;78.80;;
66587;SDS011;53446;50.076;8.198;2023-05-16T04:08:17;93.20;;;79.07;;
66587;SDS011;53446;50.076;8.198;2023-05-16T04:10:17;98.10;;;82.37;;
66587;SDS011;53446;50.076;8.198;2023-05-16T04:12:18;92.43;;;81.53;;
66587;SDS011;53446;50.076;8.198;2023-05-16T04:14:18;91.83;;;81.43;;
66587;SDS011;53446;50.076;8.198;2023-05-16T04:16:18;90.47;;;79.50;;
66587;SDS011;53446;50.076;8.198;2023-05-16T04:18:19;93.87;;;79.47;;
66587;SDS011;53446;50.076;8.198;2023-05-16T04:20:19;91.07;;;81.17;;
66587;SDS011;53446;50.076;8.198;2023-05-16T04:22:20;89.72;;;79.75;;
66587;SDS011;53446;50.076;8.198;2023-05-16T04:24:21;89.75;;;79.75;;
66587;SDS011;53446;50.076;8.198;2023-05-16T04:26:25;91.40;;;80.80;;
66587;SDS011;53446;50.076;8.198;2023-05-16T04:28:26;88.57;;;78.90;;
66587;SDS011;53446;50.076;8.198;2023-05-16T04:30:27;88.15;;;78.78;;
66587;SDS011;53446;50.076;8.198;2023-05-16T04:32:27;91.93;;;81.00;;
66587;SDS011;53446;50.076;8.198;2023-05-16T04:34:28;93.10;;;82.33;;
66587;SDS011;53446;50.076;8.198;2023-05-16T04:36:28;95.43;;;82.37;;
66587;SDS011;53446;50.076;8.198;2023-05-16T04:38:30;91.65;;;81.82;;
66587;SDS011;53446;50.076;8.198;2023-05-16T04:40:31;90.78;;;80.45;;
66587;SDS011;53446;50.076;8.198;2023-05-16T04:42:32;91.17;;;77.07;;
66587;SDS011;53446;50.076;8.198;2023-05-16T04:44:32;89.90;;;79.57;;
66587;SDS011;53446;50.076;8.198;2023-05-16T04:46:33;92.00;;;77.57;;
66587;SDS011;53446;50.076;8.198;2023-05-16T04:48:33;88.17;;;76.73;;
66587;SDS011;53446;50.076;8.198;2023-05-16T04:50:34;86.03;;;76.43;;
66587;SDS011;53446;50.076;8.198;2023-05-16T04:52:34;89.30;;;76.93;;
66587;SDS011;53446;50.076;8.198;2023-05-16T04:54:34;83.95;;;73.55;;
66587;SDS011;53446;50.076;8.198;2023-05-16T04:56:35;88.33;;;76.93;;
66587;SDS011;53446;50.076;8.198;2023-05-16T04:58:35;89.23;;;79.57;;
66587;SDS011;53446;50.076;8.198;2023-05-16T05:00:37;87.67;;;77.53;;
66587;SDS011;53446;50.076;8.198;2023-05-16T05:02:37;88.07;;;78.63;;
66587;SDS011;53446;50.076;8.198;2023-05-16T05:04:38;88.33;;;78.63;;
66587;SDS011;53446;50.076;8.198;2023-05-16T05:06:38;87.67;;;77.27;;
66587;SDS011;53446;50.076;8.198;2023-05-16T05:08:38;86.95;;;77.47;;
66587;SDS011;53446;50.076;8.198;2023-05-16T05:10:40;86.97;;;77.35;;
66587;SDS011;53446;50.076;8.198;2023-05-16T05:12:40;86.95;;;74.97;;
66587;SDS011;53446;50.076;8.198;2023-05-16T05:14:41;86.17;;;74.97;;
66587;SDS011;53446;50.076;8.198;2023-05-16T05:16:41;88.07;;;75.80;;
66587;SDS011;53446;50.076;8.198;2023-05-16T05:18:41;87.97;;;76.80;;
66587;SDS011;53446;50.076;8.198;2023-05-16T05:20:43;87.10;;;75.40;;
66587;SDS011;53446;50.076;8.198;2023-05-16T05:22:43;93.30;;;80.67;;
66587;SDS011;53446;50.076;8.198;2023-05-16T05:24:44;87.40;;;77.83;;
66587;SDS011;53446;50.076;8.198;2023-05-16T05:26:44;88.68;;;78.97;;
66587;SDS011;53446;50.076;8.198;2023-05-16T05:28:45;88.63;;;78.80;;
66587;SDS011;53446;50.076;8.198;2023-05-16T05:30:46;88.15;;;78.55;;
66587;SDS011;53446;50.076;8.198;2023-05-16T05:32:47;91.22;;;78.75;;
66587;SDS011;53446;50.076;8.198;2023-05-16T05:34:47;87.17;;;77.43;;
66587;SDS011;53446;50.076;8.198;2023-05-16T05:36:48;88.87;;;79.10;;
66587;SDS011;53446;50.076;8.198;2023-05-16T05:38:48;88.23;;;78.77;;
66587;SDS011;53446;50.076;8.198;2023-05-16T05:40:48;88.53;;;79.17;;
66587;SDS011;53446;50.076;8.198;2023-05-16T05:42:49;89.90;;;79.60;;
66587;SDS011;53446;50.076;8.198;2023-05-16T05:44:49;88.85;;;79.28;;
66587;SDS011;53446;50.076;8.198;2023-05-16T05:46:50;84.93;;;68.53;;
66587;SDS011;53446;50.076;8.198;2023-05-16T05:48:50;82.77;;;70.03;;
66587;SDS011;53446;50.076;8.198;2023-05-16T05:50:51;80.72;;;67.80;;
66587;SDS011;53446;50.076;8.198;2023-05-16T05:52:52;89.45;;;72.53;;
66587;SDS011;53446;50.076;8.198;2023-05-16T05:54:52;76.82;;;66.95;;
66587;SDS011;53446;50.076;8.198;2023-05-16T05:56:53;92.43;;;66.57;;
66587;SDS011;53446;50.076;8.198;2023-05-16T05:58:53;88.57;;;66.80;;
66587;SDS011;53446;50.076;8.198;2023-05-16T06:00:54;96.10;;;66.97;;
66587;SDS011;53446;50.076;8.198;2023-05-16T06:02:54;87.78;;;72.30;;
66587;SDS011;53446;50.076;8.198;2023-05-16T06:04:54;88.07;;;77.83;;
66587;SDS011;53446;50.076;8.198;2023-05-16T06:06:55;87.90;;;78.50;;
66587;SDS011;53446;50.076;8.198;2023-05-16T06:08:55;87.10;;;78.00;;
66587;SDS011;53446;50.076;8.198;2023-05-16T06:10:55;86.47;;;77.50;;
66587;SDS011;53446;50.076;8.198;2023-05-16T06:12:56;91.73;;;79.27;;
66587;SDS011;53446;50.076;8.198;2023-05-16T06:14:56;85.13;;;76.30;;
66587;SDS011;53446;50.076;8.198;2023-05-16T06:16:56;80.83;;;66.83;;
66587;SDS011;53446;50.076;8.198;2023-05-16T06:18:57;86.10;;;68.50;;
66587;SDS011;53446;50.076;8.198;2023-05-16T06:20:57;85.97;;;70.20;;
66587;SDS011;53446;50.076;8.198;2023-05-16T06:22:57;87.70;;;69.77;;
66587;SDS011;53446;50.076;8.198;2023-05-16T06:24:57;88.63;;;70.43;;
66587;SDS011;53446;50.076;8.198;2023-05-16T06:26:58;82.77;;;71.17;;
66587;SDS011;53446;50.076;8.198;2023-05-16T06:28:58;82.77;;;67.10;;
66587;SDS011;53446;50.076;8.198;2023-05-16T06:30:58;79.97;;;67.63;;
66587;SDS011;53446;50.076;8.198;2023-05-16T06:32:59;80.68;;;68.68;;
66587;SDS011;53446;50.076;8.198;2023-05-16T06:34:59;88.25;;;68.18;;
66587;SDS011;53446;50.076;8.198;2023-05-16T06:36:59;85.63;;;66.23;;
66587;SDS011;53446;50.076;8.198;2023-05-16T06:39:02;78.43;;;67.45;;
66587;SDS011;53446;50.076;8.198;2023-05-16T06:41:03;83.83;;;66.80;;
66587;SDS011;53446;50.076;8.198;2023-05-16T06:43:04;88.10;;;67.35;;
66587;SDS011;53446;50.076;8.198;2023-05-16T06:45:04;85.78;;;71.35;;
66587;SDS011;53446;50.076;8.198;2023-05-16T06:47:05;84.07;;;66.57;;
66587;SDS011;53446;50.076;8.198;2023-05-16T06:49:06;85.32;;;68.05;;
66587;SDS011;53446;50.076;8.198;2023-05-16T06:51:06;92.30;;;70.67;;
66587;SDS011;53446;50.076;8.198;2023-05-16T06:53:06;88.87;;;71.83;;
66587;SDS011;53446;50.076;8.198;2023-05-16T06:55:07;86.93;;;70.20;;
66587;SDS011;53446;50.076;8.198;2023-05-16T06:57:08;92.28;;;74.95;;
66587;SDS011;53446;50.076;8.198;2023-05-16T06:59:08;87.13;;;71.37;;
66587;SDS011;53446;50.076;8.198;2023-05-16T07:01:08;100.20;;;69.30;;
66587;SDS011;53446;50.076;8.198;2023-05-16T07:03:08;94.27;;;74.90;;
66587;SDS011;53446;50.076;8.198;2023-05-16T07:05:09;94.38;;;78.03;;
66587;SDS011;53446;50.076;8.198;2023-05-16T07:07:09;95.65;;;76.53;;
66587;SDS011;53446;50.076;8.198;2023-05-16T07:09:09;92.50;;;76.73;;
66587;SDS011;53446;50.076;8.198;2023-05-16T07:11:10;95.20;;;77.90;;
66587;SDS011;53446;50.076;8.198;2023-05-16T07:13:10;89.47;;;77.97;;
66587;SDS011;53446;50.076;8.198;2023-05-16T07:15:11;93.30;;;77.90;;
66587;SDS011;53446;50.076;8.198;2023-05-16T07:17:11;96.77;;;79.53;;
66587;SDS011;53446;50.076;8.198;2023-05-16T07:19:12;100.77;;;82.20;;
66587;SDS011;53446;50.076;8.198;2023-05-16T07:21:12;95.40;;;83.53;;
66587;SDS011;53446;50.076;8.198;2023-05-16T07:23:12;99.93;;;85.17;;
66587;SDS011;53446;50.076;8.198;2023-05-16T07:25:13;94.15;;;83.10;;
66587;SDS011;53446;50.076;8.198;2023-05-16T07:27:14;100.82;;;85.25;;
66587;SDS011;53446;50.076;8.198;2023-05-16T07:29:15;96.50;;;84.22;;
66587;SDS011;53446;50.076;8.198;2023-05-16T07:31:15;95.63;;;83.20;;
66587;SDS011;53446;50.076;8.198;2023-05-16T07:33:16;101.23;;;84.43;;
66587;SDS011;53446;50.076;8.198;2023-05-16T07:35:16;101.17;;;85.00;;
66587;SDS011;53446;50.076;8.198;2023-05-16T07:37:16;94.33;;;82.13;;
66587;SDS011;53446;50.076;8.198;2023-05-16T07:39:17;96.32;;;83.93;;
66587;SDS011;53446;50.076;8.198;2023-05-16T07:41:18;93.90;;;82.60;;
66587;SDS011;53446;50.076;8.198;2023-05-16T07:43:18;96.33;;;83.17;;
66587;SDS011;53446;50.076;8.198;2023-05-16T07:45:18;94.07;;;82.63;;
66587;SDS011;53446;50.076;8.198;2023-05-16T07:47:19;99.57;;;82.67;;
66587;SDS011;53446;50.076;8.198;2023-05-16T07:49:19;95.30;;;79.30;;
66587;SDS011;53446;50.076;8.198;2023-05-16T07:51:19;100.57;;;83.38;;
66587;SDS011;53446;50.076;8.198;2023-05-16T07:53:20;93.30;;;75.83;;
66587;SDS011;53446;50.076;8.198;2023-05-16T07:55:20;90.47;;;75.87;;
66587;SDS011;53446;50.076;8.198;2023-05-16T07:57:21;90.88;;;75.43;;
66587;SDS011;53446;50.076;8.198;2023-05-16T07:59:21;95.13;;;76.93;;
66587;SDS011;53446;50.076;8.198;2023-05-16T08:01:21;94.47;;;72.00;;
66587;SDS011;53446;50.076;8.198;2023-05-16T08:03:22;96.20;;;76.83;;
66587;SDS011;53446;50.076;8.198;2023-05-16T08:05:22;94.83;;;74.37;;
66587;SDS011;53446;50.076;8.198;2023-05-16T08:07:23;98.40;;;76.70;;
66587;SDS011;53446;50.076;8.198;2023-05-16T08:09:23;95.53;;;71.87;;
66587;SDS011;53446;50.076;8.198;2023-05-16T08:11:23;97.33;;;75.37;;
66587;SDS011;53446;50.076;8.198;2023-05-16T08:13:24;101.53;;;75.50;;
66587;SDS011;53446;50.076;8.198;2023-05-16T08:15:26;97.90;;;75.53;;
66587;SDS011;53446;50.076;8.198;2023-05-16T08:17:26;97.18;;;75.63;;
66587;SDS011;53446;50.076;8.198;2023-05-16T08:19:28;95.20;;;78.17;;
66587;SDS011;53446;50.076;8.198;2023-05-16T08:21:28;93.20;;;75.13;;
66587;SDS011;53446;50.076;8.198;2023-05-16T08:23:30;91.15;;;74.65;;
66587;SDS011;53446;50.076;8.198;2023-05-16T08:25:30;95.33;;;75.47;;
66587;SDS011;53446;50.076;8.198;2023-05-16T08:27:31;89.37;;;72.33;;
66587;SDS011;53446;50.076;8.198;2023-05-16T08:29:31;85.63;;;71.50;;
66587;SDS011;53446;50.076;8.198;2023-05-16T08:31:31;86.37;;;72.13;;
66587;SDS011;53446;50.076;8.198;2023-05-16T08:33:32;87.00;;;72.93;;
66587;SDS011;53446;50.076;8.198;2023-05-16T08:35:32;82.68;;;70.72;;
66587;SDS011;53446;50.076;8.198;2023-05-16T08:37:34;93.88;;;78.03;;
66587;SDS011;53446;50.076;8.198;2023-05-16T08:39:34;87.07;;;77.60;;
66587;SDS011;53446;50.076;8.198;2023-05-16T08:41:35;87.33;;;77.30;;
66587;SDS011;53446;50.076;8.198;2023-05-16T08:43:35;83.83;;;74.67;;
66587;SDS011;53446;50.076;8.198;2023-05-16T08:45:35;88.53;;;78.57;;
66587;SDS011;53446;50.076;8.198;2023-05-16T08:47:36;86.70;;;75.65;;
66587;SDS011;53446;50.076;8.198;2023-05-16T08:49:40;91.07;;;80.07;;
66587;SDS011;53446;50.076;8.198;2023-05-16T08:51:41;85.63;;;73.90;;
66587;SDS011;53446;50.076;8.198;2023-05-16T08:53:43;79.03;;;70.57;;
66587;SDS011;53446;50.076;8.198;2023-05-16T08:55:45;76.38;;;68.10;;
66587;SDS011;53446;50.076;8.198;2023-05-16T08:57:50;80.30;;;70.22;;
66587;SDS011;53446;50.076;8.198;2023-05-16T08:59:50;73.72;;;65.78;;
66587;SDS011;53446;50.076;8.198;2023-05-16T09:01:53;71.60;;;62.97;;
66587;SDS011;53446;50.076;8.198;2023-05-16T09:03:54;73.03;;;61.67;;
66587;SDS011;53446;50.076;8.198;2023-05-16T09:05:55;68.25;;;57.72;;
66587;SDS011;53446;50.076;8.198;2023-05-16T09:07:56;65.32;;;57.92;;
66587;SDS011;53446;50.076;8.198;2023-05-16T09:09:56;66.13;;;56.57;;
66587;SDS011;53446;50.076;8.198;2023-05-16T09:11:57;65.57;;;57.43;;
66587;SDS011;53446;50.076;8.198;2023-05-16T09:13:57;68.33;;;58.73;;
66587;SDS011;53446;50.076;8.198;2023-05-16T09:16:10;70.60;;;58.60;;
66587;SDS011;53446;50.076;8.198;2023-05-16T09:18:11;81.50;;;63.05;;
66587;SDS011;53446;50.076;8.198;2023-05-16T09:20:15;70.38;;;58.58;;
66587;SDS011;53446;50.076;8.198;2023-05-16T09:22:17;75.80;;;60.63;;
66587;SDS011;53446;50.076;8.198;2023-05-16T09:24:17;74.93;;;63.07;;
66587;SDS011;53446;50.076;8.198;2023-05-16T09:26:24;70.25;;;61.55;;
66587;SDS011;53446;50.076;8.198;2023-05-16T09:28:25;72.20;;;58.20;;
66587;SDS011;53446;50.076;8.198;2023-05-16T09:30:29;66.23;;;55.60;;
66587;SDS011;53446;50.076;8.198;2023-05-16T09:32:32;66.85;;;57.40;;
66587;SDS011;53446;50.076;8.198;2023-05-16T09:34:36;61.07;;;54.40;;
66587;SDS011;53446;50.076;8.198;2023-05-16T09:36:37;60.90;;;54.35;;
66587;SDS011;53446;50.076;8.198;2023-05-16T09:38:38;58.60;;;52.30;;
66587;SDS011;53446;50.076;8.198;2023-05-16T09:40:41;63.00;;;55.22;;
66587;SDS011;53446;50.076;8.198;2023-05-16T09:42:42;62.80;;;56.28;;
66587;SDS011;53446;50.076;8.198;2023-05-16T09:44:45;66.38;;;59.38;;
66587;SDS011;53446;50.076;8.198;2023-05-16T09:46:47;62.60;;;55.67;;
66587;SDS011;53446;50.076;8.198;2023-05-16T09:48:47;61.23;;;51.83;;
66587;SDS011;53446;50.076;8.198;2023-05-16T09:50:49;58.67;;;49.13;;
66587;SDS011;53446;50.076;8.198;2023-05-16T09:52:53;64.25;;;52.67;;
66587;SDS011;53446;50.076;8.198;2023-05-16T09:54:53;54.43;;;48.43;;
66587;SDS011;53446;50.076;8.198;2023-05-16T09:56:53;57.47;;;48.33;;
66587;SDS011;53446;50.076;8.198;2023-05-16T09:58:54;56.20;;;50.40;;
66587;SDS011;53446;50.076;8.198;2023-05-16T10:00:54;56.70;;;50.43;;
66587;SDS011;53446;50.076;8.198;2023-05-16T10:02:56;58.38;;;50.72;;
66587;SDS011;53446;50.076;8.198;2023-05-16T10:04:57;59.75;;;51.70;;
66587;SDS011;53446;50.076;8.198;2023-05-16T10:06:58;55.22;;;49.00;;
66587;SDS011;53446;50.076;8.198;2023-05-16T10:09:03;54.78;;;49.03;;
66587;SDS011;53446;50.076;8.198;2023-05-16T10:11:04;57.63;;;51.47;;
66587;SDS011;53446;50.076;8.198;2023-05-16T10:13:06;57.50;;;51.30;;
66587;SDS011;53446;50.076;8.198;2023-05-16T10:15:07;61.70;;;51.00;;
66587;SDS011;53446;50.076;8.198;2023-05-16T10:17:09;58.63;;;50.97;;
66587;SDS011;53446;50.076;8.198;2023-05-16T10:19:11;58.60;;;50.28;;
66587;SDS011;53446;50.076;8.198;2023-05-16T10:21:12;61.95;;;52.92;;
66587;SDS011;53446;50.076;8.198;2023-05-16T10:23:18;59.05;;;50.83;;
66587;SDS011;53446;50.076;8.198;2023-05-16T10:25:28;64.82;;;52.78;;
66587;SDS011;53446;50.076;8.198;2023-05-16T10:27:31;58.37;;;51.70;;
66587;SDS011;53446;50.076;8.198;2023-05-16T10:29:32;57.35;;;51.13;;
66587;SDS011;53446;50.076;8.198;2023-05-16T10:31:32;54.40;;;48.60;;
66587;SDS011;53446;50.076;8.198;2023-05-16T10:33:33;63.83;;;52.87;;
66587;SDS011;53446;50.076;8.198;2023-05-16T10:35:35;63.10;;;51.85;;
66587;SDS011;53446;50.076;8.198;2023-05-16T10:37:36;68.00;;;52.28;;
66587;SDS011;53446;50.076;8.198;2023-05-16T10:39:37;63.50;;;51.40;;
66587;SDS011;53446;50.076;8.198;2023-05-16T10:41:38;56.22;;;49.72;;
66587;SDS011;53446;50.076;8.198;2023-05-16T10:43:38;65.20;;;53.78;;
66587;SDS011;53446;50.076;8.198;2023-05-16T10:45:39;68.82;;;55.60;;
66587;SDS011;53446;50.076;8.198;2023-05-16T10:47:40;56.23;;;50.40;;
66587;SDS011;53446;50.076;8.198;2023-05-16T10:49:49;55.03;;;49.08;;
66587;SDS011;53446;50.076;8.198;2023-05-16T10:54:12;57.13;;;51.22;;
66587;SDS011;53446;50.076;8.198;2023-05-16T10:56:14;58.47;;;52.08;;
66587;SDS011;53446;50.076;8.198;2023-05-16T10:58:18;58.20;;;51.80;;
66587;SDS011;53446;50.076;8.198;2023-05-16T11:00:23;56.95;;;49.78;;
66587;SDS011;53446;50.076;8.198;2023-05-16T11:04:44;60.38;;;49.53;;
66587;SDS011;53446;50.076;8.198;2023-05-16T11:06:45;53.15;;;47.67;;
66587;SDS011;53446;50.076;8.198;2023-05-16T11:13:55;46.70;;;40.03;;
66587;SDS011;53446;50.076;8.198;2023-05-16T11:16:25;37.08;;;31.35;;
66587;SDS011;53446;50.076;8.198;2023-05-16T11:18:30;37.58;;;31.75;;
66587;SDS011;53446;50.076;8.198;2023-05-16T11:20:35;32.73;;;24.17;;
66587;SDS011;53446;50.076;8.198;2023-05-16T11:22:39;23.27;;;18.90;;
66587;SDS011;53446;50.076;8.198;2023-05-16T11:24:49;20.88;;;14.20;;
66587;SDS011;53446;50.076;8.198;2023-05-16T11:27:05;26.75;;;16.20;;
66587;SDS011;53446;50.076;8.198;2023-05-16T11:29:08;29.08;;;13.88;;
66587;SDS011;53446;50.076;8.198;2023-05-16T11:31:08;19.13;;;9.40;;
66587;SDS011;53446;50.076;8.198;2023-05-16T11:33:09;17.67;;;8.90;;
66587;SDS011;53446;50.076;8.198;2023-05-16T11:35:15;16.90;;;8.35;;
66587;SDS011;53446;50.076;8.198;2023-05-16T11:37:17;16.60;;;7.65;;
66587;SDS011;53446;50.076;8.198;2023-05-16T11:39:19;18.13;;;8.73;;
66587;SDS011;53446;50.076;8.198;2023-05-16T11:41:19;15.48;;;7.75;;
66587;SDS011;53446;50.076;8.198;2023-05-16T11:43:21;19.30;;;8.30;;
66587;SDS011;53446;50.076;8.198;2023-05-16T11:45:21;19.83;;;9.77;;
66587;SDS011;53446;50.076;8.198;2023-05-16T11:47:24;16.20;;;8.30;;
66587;SDS011;53446;50.076;8.198;2023-05-16T11:49:26;15.00;;;7.25;;
66587;SDS011;53446;50.076;8.198;2023-05-16T11:51:27;17.13;;;8.30;;
66587;SDS011;53446;50.076;8.198;2023-05-16T11:53:28;136.23;;;62.60;;
66587;SDS011;53446;50.076;8.198;2023-05-16T11:55:31;523.57;;;202.37;;
66587;SDS011;53446;50.076;8.198;2023-05-16T11:57:34;591.28;;;225.32;;
66587;SDS011;53446;50.076;8.198;2023-05-16T11:59:35;650.30;;;254.70;;
66587;SDS011;53446;50.076;8.198;2023-05-16T12:01:36;607.00;;;231.07;;
66587;SDS011;53446;50.076;8.198;2023-05-16T12:03:37;610.72;;;232.68;;
66587;SDS011;53446;50.076;8.198;2023-05-16T12:05:37;630.63;;;241.93;;
66587;SDS011;53446;50.076;8.198;2023-05-16T12:07:39;660.42;;;251.43;;
66587;SDS011;53446;50.076;8.198;2023-05-16T12:09:39;709.38;;;271.90;;